createdAt,value
2018-06-19T00:00:04.788Z,3.70
2018-06-19T00:01:04.757Z,3.40
2018-06-19T00:02:04.701Z,3.70
2018-06-19T00:03:04.652Z,3.10
2018-06-19T00:04:04.639Z,3.40
2018-06-19T00:05:04.600Z,3.40
2018-06-19T00:06:04.609Z,3.40
2018-06-19T00:07:04.518Z,3.40
2018-06-19T00:08:04.465Z,3.50
2018-06-19T00:09:04.459Z,3.70
2018-06-19T00:10:04.410Z,3.70
2018-06-19T00:11:04.369Z,3.50
2018-06-19T00:12:04.361Z,4.00
2018-06-19T00:13:04.293Z,3.50
2018-06-19T00:14:04.253Z,3.80
2018-06-19T00:15:04.200Z,3.70
2018-06-19T00:16:04.162Z,3.80
2018-06-19T00:17:04.187Z,3.40
2018-06-19T00:18:04.114Z,3.60
2018-06-19T00:19:04.072Z,3.50
2018-06-19T00:20:04.006Z,3.30
2018-06-19T00:21:03.984Z,3.70
2018-06-19T00:22:03.988Z,3.60
2018-06-19T00:23:03.895Z,3.40
2018-06-19T00:24:03.869Z,3.10
2018-06-19T00:25:03.855Z,3.40
2018-06-19T00:26:03.815Z,3.60
2018-06-19T00:27:03.763Z,3.70
2018-06-19T00:28:03.726Z,3.40
2018-06-19T00:29:03.701Z,3.60
2018-06-19T00:30:03.651Z,3.40
2018-06-19T00:31:03.632Z,3.70
2018-06-19T00:32:03.551Z,3.60
2018-06-19T00:33:03.528Z,3.70
2018-06-19T00:34:03.487Z,3.50
2018-06-19T00:35:03.448Z,3.70
2018-06-19T00:36:03.407Z,3.60
2018-06-19T00:37:03.388Z,3.80
2018-06-19T00:38:03.393Z,3.00
2018-06-19T00:39:03.307Z,3.30
2018-06-19T00:40:03.263Z,3.50
2018-06-19T00:41:03.219Z,3.70
2018-06-19T00:42:03.201Z,3.40
2018-06-19T00:43:03.172Z,3.40
2018-06-19T00:44:03.116Z,3.50
2018-06-19T00:45:03.085Z,3.50
2018-06-19T00:46:03.013Z,3.40
2018-06-19T00:47:02.981Z,3.40
2018-06-19T00:48:02.948Z,3.50
2018-06-19T00:49:02.939Z,3.50
2018-06-19T00:50:02.872Z,3.40
2018-06-19T00:51:02.853Z,3.40
2018-06-19T00:52:02.799Z,3.50
2018-06-19T00:53:02.755Z,3.40
2018-06-19T00:54:02.750Z,3.40
2018-06-19T00:55:02.680Z,3.80
2018-06-19T00:56:02.689Z,4.00
2018-06-19T00:57:02.617Z,3.70
2018-06-19T00:58:02.562Z,3.90
2018-06-19T00:59:02.574Z,3.80
2018-06-19T01:00:02.483Z,4.30
2018-06-19T01:01:13.966Z,3.80
2018-06-19T01:02:02.413Z,3.70
2018-06-19T01:03:02.401Z,3.70
2018-06-19T01:04:02.337Z,4.00
2018-06-19T01:05:02.311Z,3.80
2018-06-19T01:06:02.269Z,3.70
2018-06-19T01:07:02.233Z,4.10
2018-06-19T01:08:02.189Z,4.20
2018-06-19T01:09:02.174Z,3.60
2018-06-19T01:10:02.139Z,3.90
2018-06-19T01:11:02.090Z,3.70
2018-06-19T01:12:02.015Z,3.80
2018-06-19T01:13:01.977Z,4.10
2018-06-19T01:14:01.976Z,3.90
2018-06-19T01:15:01.944Z,4.30
2018-06-19T01:16:01.890Z,4.50
2018-06-19T01:17:01.849Z,4.00
2018-06-19T01:18:01.813Z,4.60
2018-06-19T01:19:01.758Z,4.60
2018-06-19T01:20:01.733Z,4.60
2018-06-19T01:21:01.744Z,4.60
2018-06-19T01:22:01.652Z,4.60
2018-06-19T01:23:01.613Z,4.60
2018-06-19T01:24:01.568Z,4.40
2018-06-19T01:25:01.517Z,4.50
2018-06-19T01:26:01.537Z,4.60
2018-06-19T01:27:01.458Z,4.70
2018-06-19T01:28:01.428Z,4.10
2018-06-19T01:29:01.383Z,4.40
2018-06-19T01:30:01.379Z,4.60
2018-06-19T01:31:01.319Z,4.20
2018-06-19T01:32:01.266Z,4.20
2018-06-19T01:33:01.231Z,4.40
2018-06-19T01:34:01.196Z,4.10
2018-06-19T01:35:01.164Z,4.20
2018-06-19T01:36:01.106Z,4.10
2018-06-19T01:37:01.082Z,4.10
2018-06-19T01:38:01.098Z,4.20
2018-06-19T01:39:01.007Z,4.70
2018-06-19T01:40:00.947Z,4.00
2018-06-19T01:41:00.934Z,4.00
2018-06-19T01:42:00.909Z,4.30
2018-06-19T01:43:00.862Z,4.50
2018-06-19T01:44:00.789Z,4.30
2018-06-19T01:45:00.763Z,5.00
2018-06-19T01:46:00.722Z,4.80
2018-06-19T01:47:00.740Z,4.90
2018-06-19T01:48:00.654Z,4.60
2018-06-19T01:49:00.624Z,4.80
2018-06-19T01:50:00.574Z,5.20
2018-06-19T01:51:00.543Z,4.50
2018-06-19T01:52:00.531Z,4.70
2018-06-19T01:53:00.469Z,4.80
2018-06-19T01:54:00.423Z,4.90
2018-06-19T01:55:00.378Z,4.80
2018-06-19T01:56:00.357Z,5.20
2018-06-19T01:57:00.301Z,4.90
2018-06-19T01:58:00.298Z,4.80
2018-06-19T01:59:00.213Z,5.20
2018-06-19T02:00:00.200Z,5.10
2018-06-19T02:01:00.146Z,5.10
2018-06-19T02:02:00.132Z,4.80
2018-06-19T02:03:00.086Z,4.90
2018-06-19T02:04:00.046Z,5.10
2018-06-19T02:05:00.037Z,4.80
2018-06-19T02:05:59.959Z,4.80
2018-06-19T02:06:59.922Z,5.10
2018-06-19T02:07:59.910Z,4.90
2018-06-19T02:08:59.858Z,4.90
2018-06-19T02:09:59.799Z,4.50
2018-06-19T02:10:59.744Z,4.90
2018-06-19T02:12:10.027Z,4.50
2018-06-19T02:12:59.713Z,4.50
2018-06-19T02:13:59.661Z,4.60
2018-06-19T02:14:59.616Z,4.20
2018-06-19T02:15:59.550Z,4.70
2018-06-19T02:16:59.537Z,4.60
2018-06-19T02:17:59.503Z,4.70
2018-06-19T02:18:59.501Z,4.50
2018-06-19T02:19:59.409Z,4.70
2018-06-19T02:20:59.374Z,4.90
2018-06-19T02:21:59.335Z,4.50
2018-06-19T02:22:59.289Z,4.60
2018-06-19T02:23:59.295Z,4.40
2018-06-19T02:24:59.219Z,4.50
2018-06-19T02:25:59.172Z,4.40
2018-06-19T02:26:59.163Z,4.60
2018-06-19T02:27:59.097Z,4.30
2018-06-19T02:28:59.107Z,4.50
2018-06-19T02:29:59.036Z,4.90
2018-06-19T02:30:59.011Z,4.30
2018-06-19T02:31:58.947Z,4.40
2018-06-19T02:32:58.917Z,4.20
2018-06-19T02:33:58.869Z,4.60
2018-06-19T02:34:58.879Z,4.00
2018-06-19T02:35:58.802Z,3.90
2018-06-19T02:36:58.764Z,4.10
2018-06-19T02:37:58.724Z,3.90
2018-06-19T02:38:58.681Z,4.10
2018-06-19T02:39:58.667Z,4.10
2018-06-19T02:40:58.636Z,3.90
2018-06-19T02:41:58.558Z,4.00
2018-06-19T02:42:58.533Z,3.90
2018-06-19T02:43:58.494Z,3.50
2018-06-19T02:44:58.495Z,4.10
2018-06-19T02:45:58.420Z,3.90
2018-06-19T02:46:58.365Z,3.60
2018-06-19T02:47:58.338Z,3.70
2018-06-19T02:48:58.334Z,4.10
2018-06-19T02:49:58.259Z,3.80
2018-06-19T02:50:58.267Z,3.80
2018-06-19T02:51:58.181Z,3.60
2018-06-19T02:52:58.159Z,3.80
2018-06-19T02:53:58.110Z,3.70
2018-06-19T02:54:58.081Z,3.70
2018-06-19T02:55:58.083Z,3.60
2018-06-19T02:56:58.019Z,3.50
2018-06-19T02:57:57.978Z,3.80
2018-06-19T02:58:57.908Z,3.70
2018-06-19T02:59:57.869Z,3.50
2018-06-19T03:00:57.861Z,3.90
2018-06-19T03:01:57.812Z,3.80
2018-06-19T03:02:57.770Z,3.90
2018-06-19T03:03:57.736Z,3.80
2018-06-19T03:04:57.703Z,3.80
2018-06-19T03:05:57.672Z,3.60
2018-06-19T03:06:57.600Z,3.40
2018-06-19T03:07:57.577Z,3.70
2018-06-19T03:08:57.551Z,3.70
2018-06-19T03:09:57.490Z,3.80
2018-06-19T03:10:57.459Z,3.80
2018-06-19T03:11:57.434Z,4.00
2018-06-19T03:12:57.402Z,3.80
2018-06-19T03:13:57.338Z,3.70
2018-06-19T03:14:57.305Z,3.70
2018-06-19T03:15:57.260Z,3.90
2018-06-19T03:16:57.301Z,3.80
2018-06-19T03:17:57.189Z,3.80
2018-06-19T03:18:57.174Z,4.00
2018-06-19T03:19:57.127Z,4.00
2018-06-19T03:20:57.063Z,3.90
2018-06-19T03:21:57.083Z,3.80
2018-06-19T03:22:57.031Z,4.00
2018-06-19T03:24:06.074Z,4.20
2018-06-19T03:24:56.922Z,3.80
2018-06-19T03:25:56.904Z,3.50
2018-06-19T03:26:56.838Z,3.90
2018-06-19T03:27:56.830Z,3.90
2018-06-19T03:28:56.770Z,3.70
2018-06-19T03:29:56.719Z,4.00
2018-06-19T03:30:56.682Z,3.90
2018-06-19T03:31:56.655Z,4.10
2018-06-19T03:32:56.648Z,3.90
2018-06-19T03:33:56.600Z,4.50
2018-06-19T03:34:56.540Z,4.10
2018-06-19T03:35:56.505Z,4.10
2018-06-19T03:36:56.467Z,3.90
2018-06-19T03:37:56.441Z,4.20
2018-06-19T03:38:56.389Z,3.80
2018-06-19T03:39:56.342Z,4.30
2018-06-19T03:40:56.313Z,4.10
2018-06-19T03:41:56.289Z,4.30
2018-06-19T03:42:56.230Z,4.40
2018-06-19T03:43:56.234Z,4.10
2018-06-19T03:44:56.173Z,4.30
2018-06-19T03:45:56.118Z,4.60
2018-06-19T03:46:56.078Z,4.50
2018-06-19T03:48:06.141Z,4.70
2018-06-19T03:48:55.990Z,4.70
2018-06-19T03:49:55.968Z,4.70
2018-06-19T03:50:55.928Z,4.40
2018-06-19T03:51:55.874Z,4.60
2018-06-19T03:52:55.876Z,4.80
2018-06-19T03:53:55.800Z,4.80
2018-06-19T03:54:55.751Z,5.00
2018-06-19T03:55:55.727Z,4.90
2018-06-19T03:56:55.691Z,5.00
2018-06-19T03:57:55.678Z,4.80
2018-06-19T03:58:55.623Z,5.20
2018-06-19T03:59:55.588Z,4.60
2018-06-19T04:00:55.545Z,4.60
2018-06-19T04:01:55.501Z,4.50
2018-06-19T04:02:55.467Z,5.20
2018-06-19T04:03:55.453Z,4.90
2018-06-19T04:04:55.406Z,4.90
2018-06-19T04:05:55.348Z,5.20
2018-06-19T04:06:55.304Z,5.40
2018-06-19T04:07:55.285Z,5.00
2018-06-19T04:08:55.272Z,5.30
2018-06-19T04:09:55.204Z,5.10
2018-06-19T04:10:55.189Z,5.10
2018-06-19T04:11:55.113Z,5.30
2018-06-19T04:12:55.086Z,5.60
2018-06-19T04:13:55.068Z,5.50
2018-06-19T04:14:55.003Z,4.90
2018-06-19T04:15:54.966Z,5.10
2018-06-19T04:16:54.945Z,5.30
2018-06-19T04:17:54.892Z,4.80
2018-06-19T04:18:54.863Z,4.90
2018-06-19T04:19:54.846Z,5.10
2018-06-19T04:20:54.770Z,5.40
2018-06-19T04:21:54.743Z,5.20
2018-06-19T04:22:54.737Z,5.30
2018-06-19T04:23:54.677Z,5.30
2018-06-19T04:24:54.645Z,5.50
2018-06-19T04:25:54.593Z,5.60
2018-06-19T04:26:54.549Z,5.50
2018-06-19T04:27:54.507Z,5.30
2018-06-19T04:28:54.483Z,5.50
2018-06-19T04:29:54.481Z,5.50
2018-06-19T04:30:54.418Z,5.10
2018-06-19T04:31:54.352Z,5.50
2018-06-19T04:32:54.338Z,5.40
2018-06-19T04:33:54.292Z,5.70
2018-06-19T04:34:54.274Z,5.70
2018-06-19T04:35:54.217Z,5.40
2018-06-19T04:36:54.168Z,5.50
2018-06-19T04:37:54.138Z,5.10
2018-06-19T04:38:54.119Z,5.60
2018-06-19T04:39:54.091Z,5.60
2018-06-19T04:40:54.011Z,5.40
2018-06-19T04:41:54.000Z,6.00
2018-06-19T04:42:53.957Z,6.20
2018-06-19T04:43:53.930Z,5.70
2018-06-19T04:44:53.870Z,5.90
2018-06-19T04:45:53.879Z,5.80
2018-06-19T04:46:53.795Z,5.70
2018-06-19T04:47:53.790Z,5.80
2018-06-19T04:48:53.716Z,6.00
2018-06-19T04:49:53.711Z,5.30
2018-06-19T04:50:53.672Z,5.90
2018-06-19T04:51:53.605Z,5.60
2018-06-19T04:52:53.565Z,5.90
2018-06-19T04:53:53.533Z,6.00
2018-06-19T04:54:53.483Z,5.90
2018-06-19T04:55:53.439Z,5.50
2018-06-19T04:56:53.433Z,5.60
2018-06-19T04:57:53.403Z,5.30
2018-06-19T04:58:53.338Z,5.60
2018-06-19T05:00:03.634Z,6.00
2018-06-19T05:00:53.287Z,6.10
2018-06-19T05:01:53.246Z,5.80
2018-06-19T05:02:53.200Z,6.00
2018-06-19T05:03:53.147Z,6.10
2018-06-19T05:04:53.128Z,6.00
2018-06-19T05:05:53.090Z,6.00
2018-06-19T05:06:53.060Z,5.70
2018-06-19T05:07:53.004Z,5.90
2018-06-19T05:08:52.958Z,6.30
2018-06-19T05:09:52.934Z,6.40
2018-06-19T05:10:52.912Z,6.20
2018-06-19T05:11:52.877Z,6.80
2018-06-19T05:12:52.871Z,6.50
2018-06-19T05:13:52.767Z,6.30
2018-06-19T05:14:52.745Z,6.30
2018-06-19T05:15:52.697Z,6.20
2018-06-19T05:16:52.692Z,6.70
2018-06-19T05:17:52.629Z,6.50
2018-06-19T05:18:52.585Z,6.50
2018-06-19T05:19:52.557Z,6.50
2018-06-19T05:20:52.517Z,6.20
2018-06-19T05:21:52.488Z,6.50
2018-06-19T05:22:52.441Z,6.00
2018-06-19T05:24:03.640Z,6.50
2018-06-19T05:24:52.367Z,6.50
2018-06-19T05:25:52.316Z,6.80
2018-06-19T05:26:52.292Z,6.40
2018-06-19T05:27:52.253Z,7.10
2018-06-19T05:28:52.207Z,6.40
2018-06-19T05:29:52.172Z,6.10
2018-06-19T05:30:52.124Z,6.20
2018-06-19T05:31:52.089Z,6.30
2018-06-19T05:32:52.072Z,6.40
2018-06-19T05:33:52.028Z,6.20
2018-06-19T05:34:51.978Z,6.60
2018-06-19T05:35:51.960Z,6.50
2018-06-19T05:36:51.915Z,6.40
2018-06-19T05:37:51.894Z,6.70
2018-06-19T05:38:51.839Z,6.40
2018-06-19T05:39:51.804Z,6.50
2018-06-19T05:40:51.751Z,6.70
2018-06-19T05:41:51.724Z,6.80
2018-06-19T05:42:51.708Z,6.80
2018-06-19T05:43:51.655Z,6.50
2018-06-19T05:44:51.619Z,6.40
2018-06-19T05:45:51.570Z,6.20
2018-06-19T05:46:51.548Z,6.30
2018-06-19T05:47:51.530Z,7.00
2018-06-19T05:48:51.453Z,6.60
2018-06-19T05:49:51.418Z,6.50
2018-06-19T05:50:51.411Z,6.70
2018-06-19T05:51:51.336Z,6.30
2018-06-19T05:52:51.358Z,6.40
2018-06-19T05:53:51.292Z,6.50
2018-06-19T05:54:51.248Z,6.40
2018-06-19T05:55:51.193Z,6.10
2018-06-19T05:56:51.176Z,6.70
2018-06-19T05:57:51.136Z,6.00
2018-06-19T05:58:51.103Z,6.30
2018-06-19T05:59:51.079Z,6.40
2018-06-19T06:00:51.018Z,6.20
2018-06-19T06:01:50.971Z,6.30
2018-06-19T06:02:50.934Z,6.00
2018-06-19T06:03:50.920Z,5.80
2018-06-19T06:04:50.855Z,6.30
2018-06-19T06:05:50.897Z,5.70
2018-06-19T06:06:50.774Z,5.50
2018-06-19T06:07:50.756Z,5.70
2018-06-19T06:08:50.706Z,6.00
2018-06-19T06:09:50.687Z,6.10
2018-06-19T06:10:50.636Z,5.70
2018-06-19T06:11:50.613Z,6.10
2018-06-19T06:12:50.559Z,6.00
2018-06-19T06:13:50.538Z,6.30
2018-06-19T06:14:50.514Z,6.50
2018-06-19T06:15:50.453Z,6.50
2018-06-19T06:16:50.439Z,5.80
2018-06-19T06:17:50.370Z,5.90
2018-06-19T06:18:50.348Z,7.00
2018-06-19T06:19:50.342Z,7.00
2018-06-19T06:20:50.295Z,6.50
2018-06-19T06:21:50.234Z,6.80
2018-06-19T06:22:50.196Z,6.40
2018-06-19T06:23:50.158Z,6.30
2018-06-19T06:24:50.122Z,6.10
2018-06-19T06:25:50.124Z,6.30
2018-06-19T06:26:50.061Z,6.20
2018-06-19T06:27:50.013Z,6.20
2018-06-19T06:28:49.974Z,6.00
2018-06-19T06:29:49.933Z,5.80
2018-06-19T06:30:49.907Z,6.20
2018-06-19T06:31:49.863Z,5.90
2018-06-19T06:32:49.847Z,6.10
2018-06-19T06:33:49.782Z,6.50
2018-06-19T06:34:49.761Z,6.00
2018-06-19T06:35:59.810Z,6.30
2018-06-19T06:36:49.669Z,6.00
2018-06-19T06:37:49.644Z,6.30
2018-06-19T06:38:49.593Z,6.20
2018-06-19T06:39:49.571Z,6.00
2018-06-19T06:40:49.536Z,6.90
2018-06-19T06:41:49.513Z,6.40
2018-06-19T06:42:49.458Z,6.40
2018-06-19T06:43:49.425Z,6.40
2018-06-19T06:44:49.427Z,6.40
2018-06-19T06:45:49.352Z,6.90
2018-06-19T06:46:49.338Z,6.60
2018-06-19T06:47:49.276Z,6.90
2018-06-19T06:48:49.256Z,6.60
2018-06-19T06:49:49.190Z,6.80
2018-06-19T06:50:49.180Z,6.70
2018-06-19T06:51:49.164Z,6.90
2018-06-19T06:52:49.092Z,6.80
2018-06-19T06:53:49.042Z,6.20
2018-06-19T06:54:49.016Z,7.10
2018-06-19T06:55:48.992Z,7.30
2018-06-19T06:56:48.984Z,6.60
2018-06-19T06:57:48.906Z,6.50
2018-06-19T06:59:01.236Z,6.60
2018-06-19T06:59:48.817Z,7.10
2018-06-19T07:00:48.783Z,7.20
2018-06-19T07:01:48.896Z,7.20
2018-06-19T07:02:48.747Z,7.20
2018-06-19T07:03:48.680Z,7.30
2018-06-19T07:04:48.645Z,6.70
2018-06-19T07:05:48.629Z,6.70
2018-06-19T07:06:48.604Z,7.30
2018-06-19T07:07:48.552Z,6.60
2018-06-19T07:08:48.494Z,6.90
2018-06-19T07:09:48.491Z,7.30
2018-06-19T07:10:48.443Z,7.40
2018-06-19T07:11:48.407Z,7.70
2018-06-19T07:12:48.374Z,7.00
2018-06-19T07:13:48.317Z,7.40
2018-06-19T07:14:48.277Z,7.20
2018-06-19T07:15:48.240Z,7.20
2018-06-19T07:16:48.194Z,7.20
2018-06-19T07:17:48.185Z,7.60
2018-06-19T07:18:48.151Z,7.60
2018-06-19T07:19:48.109Z,8.20
2018-06-19T07:20:48.056Z,7.90
2018-06-19T07:21:48.060Z,7.90
2018-06-19T07:22:48.014Z,7.30
2018-06-19T07:23:58.250Z,8.30
2018-06-19T07:24:47.923Z,7.80
2018-06-19T07:25:47.853Z,7.80
2018-06-19T07:26:47.864Z,8.00
2018-06-19T07:27:47.840Z,8.30
2018-06-19T07:28:47.761Z,7.90
2018-06-19T07:29:47.728Z,8.10
2018-06-19T07:30:47.714Z,8.00
2018-06-19T07:31:47.639Z,7.70
2018-06-19T07:32:47.635Z,8.30
2018-06-19T07:33:47.564Z,8.00
2018-06-19T07:34:47.541Z,8.40
2018-06-19T07:35:47.488Z,8.50
2018-06-19T07:36:47.511Z,8.10
2018-06-19T07:37:47.500Z,8.40
2018-06-19T07:38:47.389Z,8.30
2018-06-19T07:39:47.357Z,8.10
2018-06-19T07:40:47.315Z,8.40
2018-06-19T07:41:47.286Z,8.90
2018-06-19T07:42:47.273Z,9.20
2018-06-19T07:43:47.230Z,8.80
2018-06-19T07:44:47.162Z,9.40
2018-06-19T07:45:47.140Z,8.50
2018-06-19T07:46:47.098Z,8.90
2018-06-19T07:47:47.107Z,9.00
2018-06-19T07:48:47.021Z,9.20
2018-06-19T07:49:47.001Z,9.60
2018-06-19T07:50:46.949Z,8.80
2018-06-19T07:51:46.913Z,10.30
2018-06-19T07:52:46.902Z,9.30
2018-06-19T07:53:46.837Z,10.60
2018-06-19T07:54:46.788Z,12.20
2018-06-19T07:55:46.772Z,12.80
2018-06-19T07:56:46.731Z,12.00
2018-06-19T07:57:46.750Z,11.50
2018-06-19T07:58:46.677Z,12.40
2018-06-19T07:59:46.627Z,13.20
2018-06-19T08:00:46.598Z,13.40
2018-06-19T08:01:46.590Z,13.60
2018-06-19T08:02:46.527Z,12.80
2018-06-19T08:03:46.493Z,12.30
2018-06-19T08:04:46.439Z,12.50
2018-06-19T08:05:46.413Z,13.10
2018-06-19T08:06:57.048Z,13.10
2018-06-19T08:07:46.353Z,12.20
2018-06-19T08:08:46.300Z,12.60
2018-06-19T08:09:46.244Z,12.50
2018-06-19T08:10:46.253Z,13.50
2018-06-19T08:11:46.187Z,14.10
2018-06-19T08:12:46.172Z,12.80
2018-06-19T08:13:46.136Z,13.80
2018-06-19T08:14:46.110Z,13.50
2018-06-19T08:15:46.052Z,14.40
2018-06-19T08:16:45.978Z,14.60
2018-06-19T08:17:45.978Z,15.10
2018-06-19T08:18:45.922Z,15.10
2018-06-19T08:19:45.894Z,15.10
2018-06-19T08:20:45.870Z,15.20
2018-06-19T08:21:45.831Z,14.80
2018-06-19T08:22:45.839Z,16.40
2018-06-19T08:23:45.737Z,15.90
2018-06-19T08:24:45.700Z,16.40
2018-06-19T08:25:45.665Z,17.20
2018-06-19T08:26:45.644Z,16.60
2018-06-19T08:27:45.617Z,16.20
2018-06-19T08:28:45.586Z,17.30
2018-06-19T08:29:45.516Z,16.80
2018-06-19T08:30:45.479Z,16.70
2018-06-19T08:31:45.452Z,15.60
2018-06-19T08:32:45.416Z,15.90
2018-06-19T08:33:45.394Z,16.60
2018-06-19T08:34:56.289Z,16.60
2018-06-19T08:35:45.284Z,16.10
2018-06-19T08:36:45.257Z,15.80
2018-06-19T08:37:45.279Z,15.90
2018-06-19T08:38:45.216Z,16.90
2018-06-19T08:39:45.136Z,16.60
2018-06-19T08:40:45.102Z,17.10
2018-06-19T08:41:45.104Z,17.20
2018-06-19T08:42:45.055Z,17.50
2018-06-19T08:43:45.023Z,17.10
2018-06-19T08:44:44.965Z,17.50
2018-06-19T08:45:44.912Z,15.90
2018-06-19T08:46:44.875Z,15.70
2018-06-19T08:47:44.860Z,16.60
2018-06-19T08:48:44.811Z,16.60
2018-06-19T08:49:44.817Z,15.10
2018-06-19T08:50:44.785Z,15.20
2018-06-19T08:51:44.713Z,15.60
2018-06-19T08:52:44.690Z,15.80
2018-06-19T08:53:44.657Z,15.60
2018-06-19T08:54:44.631Z,15.00
2018-06-19T08:55:44.588Z,15.90
2018-06-19T08:56:44.539Z,15.70
2018-06-19T08:57:44.487Z,15.80
2018-06-19T08:58:54.943Z,15.90
2018-06-19T08:59:44.473Z,16.30
2018-06-19T09:00:44.430Z,16.10
2018-06-19T09:01:44.373Z,16.90
2018-06-19T09:02:44.328Z,17.00
2018-06-19T09:03:44.267Z,16.90
2018-06-19T09:04:44.227Z,16.80
2018-06-19T09:05:44.215Z,17.00
2018-06-19T09:06:44.200Z,17.20
2018-06-19T09:07:44.152Z,17.40
2018-06-19T09:08:44.093Z,17.80
2018-06-19T09:09:44.083Z,17.40
2018-06-19T09:10:44.056Z,16.70
2018-06-19T09:11:43.973Z,17.50
2018-06-19T09:12:43.962Z,16.90
2018-06-19T09:13:43.915Z,17.70
2018-06-19T09:14:43.895Z,17.50
2018-06-19T09:15:43.863Z,17.20
2018-06-19T09:16:43.784Z,17.40
2018-06-19T09:17:43.761Z,16.70
2018-06-19T09:18:43.727Z,17.20
2018-06-19T09:19:43.702Z,16.30
2018-06-19T09:20:43.676Z,16.50
2018-06-19T09:21:43.659Z,17.20
2018-06-19T09:22:43.584Z,16.50
2018-06-19T09:23:43.545Z,17.20
2018-06-19T09:24:43.524Z,17.10
2018-06-19T09:25:43.495Z,15.80
2018-06-19T09:26:43.465Z,15.80
2018-06-19T09:27:43.422Z,16.10
2018-06-19T09:28:43.375Z,16.40
2018-06-19T09:29:43.322Z,16.60
2018-06-19T09:30:43.294Z,16.70
2018-06-19T09:31:43.310Z,15.90
2018-06-19T09:32:43.243Z,16.10
2018-06-19T09:33:43.211Z,16.40
2018-06-19T09:34:43.148Z,16.10
2018-06-19T09:35:43.111Z,15.60
2018-06-19T09:36:43.107Z,15.50
2018-06-19T09:37:43.068Z,15.80
2018-06-19T09:38:43.019Z,15.10
2018-06-19T09:39:42.999Z,15.00
2018-06-19T09:40:42.948Z,14.20
2018-06-19T09:41:42.901Z,15.00
2018-06-19T09:42:42.874Z,14.70
2018-06-19T09:43:42.866Z,14.80
2018-06-19T09:44:42.790Z,14.40
2018-06-19T09:45:42.775Z,14.00
2018-06-19T09:46:52.955Z,13.90
2018-06-19T09:47:42.727Z,14.00
2018-06-19T09:48:42.649Z,14.30
2018-06-19T09:49:43.093Z,14.30
2018-06-19T09:50:42.573Z,14.00
2018-06-19T09:51:42.538Z,14.10
2018-06-19T09:52:42.519Z,14.10
2018-06-19T09:53:42.513Z,13.10
2018-06-19T09:54:42.436Z,13.40
2018-06-19T09:55:42.397Z,13.70
2018-06-19T09:56:42.384Z,13.30
2018-06-19T09:57:42.337Z,13.40
2018-06-19T09:58:42.321Z,13.80
2018-06-19T09:59:42.258Z,13.70
2018-06-19T10:00:42.287Z,13.50
2018-06-19T10:01:42.201Z,13.60
2018-06-19T10:02:42.171Z,12.60
2018-06-19T10:03:42.152Z,12.90
2018-06-19T10:04:42.068Z,12.70
2018-06-19T10:05:42.049Z,12.80
2018-06-19T10:06:42.025Z,13.10
2018-06-19T10:07:41.985Z,13.50
2018-06-19T10:08:41.953Z,12.70
2018-06-19T10:09:41.939Z,12.80
2018-06-19T10:10:41.891Z,13.20
2018-06-19T10:11:41.851Z,12.90
2018-06-19T10:12:41.804Z,13.10
2018-06-19T10:13:41.763Z,13.70
2018-06-19T10:14:41.774Z,13.80
2018-06-19T10:15:41.704Z,13.70
2018-06-19T10:16:41.675Z,14.60
2018-06-19T10:17:41.644Z,14.00
2018-06-19T10:18:41.587Z,14.40
2018-06-19T10:19:41.583Z,14.70
2018-06-19T10:20:41.552Z,14.50
2018-06-19T10:21:41.493Z,14.30
2018-06-19T10:22:41.452Z,13.60
2018-06-19T10:23:41.425Z,14.00
2018-06-19T10:24:41.366Z,13.30
2018-06-19T10:25:41.370Z,12.90
2018-06-19T10:26:41.340Z,12.30
2018-06-19T10:27:41.259Z,11.90
2018-06-19T10:28:41.271Z,11.70
2018-06-19T10:29:41.214Z,11.90
2018-06-19T10:30:41.204Z,11.80
2018-06-19T10:31:41.179Z,11.30
2018-06-19T10:32:41.096Z,11.30
2018-06-19T10:33:41.060Z,11.60
2018-06-19T10:34:41.041Z,11.10
2018-06-19T10:35:41.030Z,11.00
2018-06-19T10:36:40.941Z,10.80
2018-06-19T10:37:40.936Z,10.90
2018-06-19T10:38:40.884Z,10.90
2018-06-19T10:39:40.845Z,10.60
2018-06-19T10:40:40.855Z,11.10
2018-06-19T10:41:40.779Z,10.20
2018-06-19T10:42:40.778Z,10.50
2018-06-19T10:43:40.716Z,10.50
2018-06-19T10:44:40.693Z,9.70
2018-06-19T10:45:40.660Z,10.60
2018-06-19T10:46:40.627Z,10.10
2018-06-19T10:47:40.589Z,10.20
2018-06-19T10:48:40.538Z,10.60
2018-06-19T10:49:40.542Z,10.30
2018-06-19T10:50:40.494Z,11.50
2018-06-19T10:51:40.459Z,11.80
2018-06-19T10:52:40.439Z,12.10
2018-06-19T10:53:40.368Z,11.20
2018-06-19T10:54:40.353Z,11.80
2018-06-19T10:55:40.324Z,12.00
2018-06-19T10:56:40.304Z,11.00
2018-06-19T10:57:40.228Z,10.30
2018-06-19T10:58:50.766Z,10.10
2018-06-19T10:59:40.177Z,9.90
2018-06-19T11:00:40.186Z,11.10
2018-06-19T11:01:40.128Z,10.60
2018-06-19T11:02:40.074Z,9.90
2018-06-19T11:03:40.005Z,10.40
2018-06-19T11:04:39.982Z,10.10
2018-06-19T11:05:39.961Z,10.40
2018-06-19T11:06:39.906Z,9.90
2018-06-19T11:07:39.915Z,10.40
2018-06-19T11:08:39.860Z,10.30
2018-06-19T11:09:39.828Z,10.70
2018-06-19T11:10:39.783Z,10.60
2018-06-19T11:11:39.744Z,10.90
2018-06-19T11:12:39.728Z,11.00
2018-06-19T11:13:39.670Z,11.80
2018-06-19T11:14:39.646Z,12.10
2018-06-19T11:15:39.628Z,11.20
2018-06-19T11:16:39.554Z,11.40
2018-06-19T11:17:39.546Z,12.00
2018-06-19T11:18:39.535Z,11.40
2018-06-19T11:19:39.483Z,11.40
2018-06-19T11:20:39.440Z,11.20
2018-06-19T11:21:39.419Z,10.70
2018-06-19T11:22:49.610Z,11.30
2018-06-19T11:23:39.359Z,11.20
2018-06-19T11:24:39.290Z,10.70
2018-06-19T11:25:39.268Z,10.80
2018-06-19T11:26:39.311Z,11.00
2018-06-19T11:27:39.214Z,11.60
2018-06-19T11:28:39.183Z,11.30
2018-06-19T11:29:39.141Z,11.50
2018-06-19T11:30:39.114Z,11.60
2018-06-19T11:31:39.057Z,10.80
2018-06-19T11:32:39.045Z,10.90
2018-06-19T11:33:39.005Z,11.00
2018-06-19T11:34:39.006Z,10.30
2018-06-19T11:35:38.923Z,10.60
2018-06-19T11:36:38.904Z,10.40
2018-06-19T11:37:38.881Z,10.70
2018-06-19T11:38:38.866Z,9.90
2018-06-19T11:39:38.839Z,10.60
2018-06-19T11:40:38.755Z,9.90
2018-06-19T11:41:38.734Z,10.10
2018-06-19T11:42:38.693Z,10.00
2018-06-19T11:43:38.669Z,10.00
2018-06-19T11:44:38.678Z,10.20
2018-06-19T11:45:38.571Z,9.90
2018-06-19T11:46:38.560Z,9.90
2018-06-19T11:47:38.522Z,9.60
2018-06-19T11:48:38.471Z,9.20
2018-06-19T11:49:38.472Z,9.40
2018-06-19T11:50:38.447Z,9.00
2018-06-19T11:51:38.392Z,8.90
2018-06-19T11:52:38.369Z,9.50
2018-06-19T11:53:38.319Z,9.40
2018-06-19T11:54:38.295Z,9.20
2018-06-19T11:55:38.265Z,10.20
2018-06-19T11:56:38.240Z,9.90
2018-06-19T11:57:38.203Z,10.40
2018-06-19T11:58:38.173Z,9.70
2018-06-19T11:59:38.130Z,9.70
2018-06-19T12:00:38.098Z,9.40
2018-06-19T12:01:38.039Z,8.60
2018-06-19T12:02:38.005Z,8.80
2018-06-19T12:03:37.979Z,8.00
2018-06-19T12:04:37.944Z,8.10
2018-06-19T12:05:37.936Z,8.70
2018-06-19T12:06:37.893Z,8.10
2018-06-19T12:07:37.852Z,8.40
2018-06-19T12:08:37.824Z,7.60
2018-06-19T12:09:48.403Z,8.40
2018-06-19T12:10:37.737Z,8.10
2018-06-19T12:11:37.842Z,7.70
2018-06-19T12:12:37.675Z,8.60
2018-06-19T12:13:37.669Z,7.40
2018-06-19T12:14:37.601Z,7.50
2018-06-19T12:15:37.570Z,7.80
2018-06-19T12:16:37.560Z,7.70
2018-06-19T12:17:37.502Z,8.00
2018-06-19T12:18:37.474Z,8.40
2018-06-19T12:19:37.429Z,7.70
2018-06-19T12:20:37.401Z,8.00
2018-06-19T12:21:37.404Z,7.40
2018-06-19T12:22:37.359Z,7.10
2018-06-19T12:23:37.293Z,5.90
2018-06-19T12:24:37.259Z,6.40
2018-06-19T12:25:37.236Z,5.90
2018-06-19T12:26:37.203Z,5.60
2018-06-19T12:27:37.211Z,5.70
2018-06-19T12:28:37.155Z,5.60
2018-06-19T12:29:37.155Z,5.70
2018-06-19T12:30:37.062Z,5.80
2018-06-19T12:31:37.049Z,5.50
2018-06-19T12:32:37.035Z,5.60
2018-06-19T12:33:37.014Z,6.10
2018-06-19T12:34:36.937Z,6.70
2018-06-19T12:35:36.895Z,6.30
2018-06-19T12:36:36.882Z,6.10
2018-06-19T12:37:36.878Z,6.30
2018-06-19T12:38:36.826Z,6.80
2018-06-19T12:39:36.784Z,6.70
2018-06-19T12:40:36.748Z,6.50
2018-06-19T12:41:36.764Z,6.60
2018-06-19T12:42:36.696Z,7.30
2018-06-19T12:43:36.648Z,6.90
2018-06-19T12:44:36.598Z,7.20
2018-06-19T12:45:36.610Z,6.70
2018-06-19T12:46:36.561Z,7.00
2018-06-19T12:47:36.511Z,6.50
2018-06-19T12:48:36.477Z,6.80
2018-06-19T12:49:36.440Z,6.70
2018-06-19T12:50:36.420Z,6.40
2018-06-19T12:51:36.379Z,6.60
2018-06-19T12:52:36.346Z,6.70
2018-06-19T12:53:36.320Z,6.50
2018-06-19T12:54:36.267Z,7.00
2018-06-19T12:55:36.222Z,6.50
2018-06-19T12:56:36.190Z,6.70
2018-06-19T12:57:36.154Z,5.90
2018-06-19T12:58:36.136Z,6.30
2018-06-19T12:59:36.114Z,6.20
2018-06-19T13:00:36.072Z,6.20
2018-06-19T13:01:36.016Z,6.20
2018-06-19T13:02:35.991Z,5.60
2018-06-19T13:03:35.947Z,5.30
2018-06-19T13:04:35.962Z,5.50
2018-06-19T13:05:35.904Z,5.30
2018-06-19T13:06:35.874Z,4.90
2018-06-19T13:07:35.834Z,4.90
2018-06-19T13:08:35.784Z,5.10
2018-06-19T13:09:35.769Z,4.50